Time;durP1;ratioP1;P1;durP2;ratioP2;P2;SDS_P1;SDS_P2;PMS_P1;PMS_P2;Temp;Humidity;BMP_temperature;BMP_pressure;BME280_temperature;BME280_humidity;BME280_pressure;Samples;Min_cycle;Max_cycle;Signal;HPM_P1;HPM_P2
2021/10/17 00:01:14;;;;;;;39.05;21.92;;;10.30;78.00;;;;;;5057593;28;20083;-35
2021/10/17 00:03:39;;;;;;;36.72;21.10;;;10.30;78.00;;;;;;5058645;28;20044;-36
2021/10/17 00:06:05;;;;;;;37.40;21.98;;;10.20;78.00;;;;;;5057701;28;20033;-35
2021/10/17 00:08:32;;;;;;;32.88;21.05;;;10.20;78.10;;;;;;5057975;28;20051;-36
2021/10/17 00:10:57;;;;;;;37.83;22.00;;;10.20;78.20;;;;;;5057953;28;20028;-39
2021/10/17 00:13:23;;;;;;;35.47;20.80;;;10.10;78.10;;;;;;5058008;28;20036;-35
2021/10/17 00:15:49;;;;;;;37.72;22.50;;;10.10;78.20;;;;;;5057901;28;20024;-36
2021/10/17 00:18:15;;;;;;;39.92;22.83;;;10.10;78.10;;;;;;5057658;28;20033;-38
2021/10/17 00:20:41;;;;;;;37.88;22.92;;;10.10;78.20;;;;;;5057918;28;20401;-37
2021/10/17 00:23:07;;;;;;;36.85;22.30;;;10.00;78.20;;;;;;5057970;28;20414;-35
2021/10/17 00:25:33;;;;;;;39.00;23.45;;;10.00;78.20;;;;;;5057682;28;20064;-35
2021/10/17 00:27:59;;;;;;;39.75;23.90;;;9.90;78.30;;;;;;5057874;28;20056;-39
2021/10/17 00:30:24;;;;;;;35.30;22.15;;;9.90;78.30;;;;;;5057670;28;20044;-38
2021/10/17 00:32:50;;;;;;;40.45;23.50;;;9.90;78.40;;;;;;5057580;28;20417;-37
2021/10/17 00:35:16;;;;;;;39.00;23.13;;;9.90;78.40;;;;;;5057372;28;20028;-37
2021/10/17 00:37:43;;;;;;;36.22;23.23;;;9.90;78.40;;;;;;5057610;28;20108;-37
2021/10/17 00:40:14;;;;;;;38.40;23.65;;;9.80;78.50;;;;;;5057052;28;20021;-36
2021/10/17 00:42:41;;;;;;;36.40;22.55;;;9.80;78.50;;;;;;5057557;28;20041;-37
2021/10/17 00:45:12;;;;;;;35.88;21.90;;;9.80;78.60;;;;;;5057464;28;20029;-35
2021/10/17 00:47:38;;;;;;;32.70;21.67;;;9.80;78.60;;;;;;5057384;28;20417;-37
2021/10/17 00:50:05;;;;;;;35.65;22.60;;;9.80;78.60;;;;;;5057335;28;20031;-35
2021/10/17 00:52:31;;;;;;;43.05;21.88;;;9.70;78.50;;;;;;5057296;28;20083;-38
2021/10/17 00:54:57;;;;;;;35.90;22.10;;;9.70;78.60;;;;;;5056029;28;20025;-39
2021/10/17 00:57:23;;;;;;;34.38;21.33;;;9.70;78.60;;;;;;5056949;28;20063;-35
2021/10/17 00:59:49;;;;;;;38.25;20.25;;;9.70;78.60;;;;;;5057257;28;20024;-39
2021/10/17 01:02:15;;;;;;;37.20;22.33;;;9.70;78.70;;;;;;5056801;28;20033;-36
2021/10/17 01:04:41;;;;;;;37.40;21.95;;;9.60;78.60;;;;;;5057268;28;20421;-37
2021/10/17 01:07:08;;;;;;;39.20;22.88;;;9.60;78.70;;;;;;5056982;28;20409;-35
2021/10/17 01:09:35;;;;;;;35.83;21.42;;;9.60;78.70;;;;;;5057447;28;20021;-35
2021/10/17 01:12:00;;;;;;;36.78;21.55;;;9.60;78.70;;;;;;5056848;28;20063;-36
2021/10/17 01:14:26;;;;;;;32.63;20.23;;;9.60;78.80;;;;;;5056912;28;20029;-37
2021/10/17 01:16:53;;;;;;;37.15;22.08;;;9.50;78.80;;;;;;5056605;28;20082;-38
2021/10/17 01:19:20;;;;;;;36.60;22.23;;;9.50;78.90;;;;;;5056619;28;20108;-36
2021/10/17 01:21:46;;;;;;;38.22;22.13;;;9.50;78.90;;;;;;5056553;28;20033;-36
2021/10/17 01:24:13;;;;;;;38.47;22.00;;;9.50;78.90;;;;;;5056373;28;20405;-38
2021/10/17 01:26:39;;;;;;;40.25;22.63;;;9.40;78.90;;;;;;5056428;28;20219;-35
2021/10/17 01:29:05;;;;;;;37.30;21.77;;;9.40;79.00;;;;;;5056598;28;20440;-35
2021/10/17 01:31:38;;;;;;;36.20;22.10;;;9.40;79.00;;;;;;5055932;28;20025;-38
2021/10/17 01:34:06;;;;;;;38.72;23.13;;;9.40;79.00;;;;;;5056686;28;20040;-39
2021/10/17 01:36:32;;;;;;;35.15;21.05;;;9.30;79.00;;;;;;5056104;28;20032;-37
2021/10/17 01:38:58;;;;;;;38.03;22.15;;;9.30;79.00;;;;;;5056771;28;20033;-37
2021/10/17 01:41:24;;;;;;;32.50;19.85;;;9.30;79.10;;;;;;5055807;28;20055;-38
2021/10/17 01:43:50;;;;;;;38.35;22.55;;;9.30;79.20;;;;;;5056675;28;20037;-35
2021/10/17 01:46:16;;;;;;;39.08;21.63;;;9.30;79.20;;;;;;5055772;28;20390;-35
2021/10/17 01:48:41;;;;;;;34.28;21.55;;;9.20;79.20;;;;;;5056723;28;20035;-38
2021/10/17 01:51:07;;;;;;;35.55;22.23;;;9.20;79.20;;;;;;5055980;28;20059;-35
2021/10/17 01:53:33;;;;;;;39.33;23.63;;;9.20;79.20;;;;;;5056463;28;20037;-38
2021/10/17 01:56:00;;;;;;;39.70;21.23;;;9.20;79.30;;;;;;5056002;28;20041;-35
2021/10/17 01:58:26;;;;;;;41.55;22.48;;;9.20;79.30;;;;;;5056195;28;20094;-35
2021/10/17 02:00:52;;;;;;;37.22;21.00;;;9.20;79.30;;;;;;5055581;28;20031;-38
2021/10/17 02:03:18;;;;;;;38.00;21.00;;;9.20;79.40;;;;;;5055446;28;20116;-38
2021/10/17 02:05:44;;;;;;;35.25;22.20;;;9.10;79.40;;;;;;5056038;28;20124;-36
2021/10/17 02:08:10;;;;;;;35.00;20.35;;;9.10;79.40;;;;;;5055898;28;20175;-34
2021/10/17 02:10:36;;;;;;;38.45;21.70;;;9.10;79.40;;;;;;5055654;28;20484;-36
2021/10/17 02:13:02;;;;;;;36.13;21.73;;;9.10;80.00;;;;;;5055763;28;20077;-34
2021/10/17 02:15:28;;;;;;;34.53;20.38;;;9.10;79.40;;;;;;5055493;28;20021;-34
2021/10/17 02:17:53;;;;;;;36.05;21.08;;;9.10;79.50;;;;;;5055809;28;20287;-38
2021/10/17 02:20:19;;;;;;;36.53;21.17;;;9.10;79.50;;;;;;5055265;28;20029;-38
2021/10/17 02:22:45;;;;;;;33.85;21.75;;;9.10;79.50;;;;;;5055613;28;20143;-35
2021/10/17 02:25:11;;;;;;;38.80;22.88;;;9.10;79.50;;;;;;5055432;28;20036;-37
2021/10/17 02:27:37;;;;;;;34.55;21.55;;;9.10;79.50;;;;;;5055638;28;20048;-38
2021/10/17 02:30:04;;;;;;;36.35;21.65;;;9.00;79.60;;;;;;5055275;28;20036;-34
2021/10/17 02:32:29;;;;;;;37.65;20.58;;;9.00;79.60;;;;;;5055353;28;20056;-37
2021/10/17 02:34:55;;;;;;;33.67;20.02;;;9.00;79.70;;;;;;5055365;28;20108;-37
2021/10/17 02:37:21;;;;;;;38.63;22.60;;;9.00;79.70;;;;;;5055442;28;20283;-37
2021/10/17 02:39:47;;;;;;;33.05;19.73;;;9.00;79.80;;;;;;5055151;28;20029;-37
2021/10/17 02:42:12;;;;;;;37.38;21.95;;;9.00;79.80;;;;;;5054127;28;20124;-39
2021/10/17 02:44:38;;;;;;;35.72;21.83;;;9.00;79.80;;;;;;5055233;28;20060;-38
2021/10/17 02:47:04;;;;;;;38.38;21.90;;;9.00;79.80;;;;;;5055441;28;20036;-35
2021/10/17 02:49:29;;;;;;;35.97;21.05;;;9.00;79.80;;;;;;5055170;28;20029;-39
2021/10/17 02:51:55;;;;;;;36.20;21.77;;;9.00;79.80;;;;;;5055286;28;20061;-39
2021/10/17 02:54:21;;;;;;;45.85;21.88;;;9.00;79.90;;;;;;5055217;28;20029;-35
2021/10/17 02:56:46;;;;;;;36.55;22.20;;;8.90;79.70;;;;;;5055145;28;20094;-36
2021/10/17 02:59:12;;;;;;;37.13;21.98;;;9.00;79.90;;;;;;5055162;28;20402;-39
2021/10/17 03:01:37;;;;;;;41.75;22.90;;;8.90;79.90;;;;;;5055116;28;20040;-39
2021/10/17 03:04:03;;;;;;;35.97;22.15;;;8.90;79.90;;;;;;5055120;28;20032;-36
2021/10/17 03:06:29;;;;;;;37.05;21.00;;;8.90;80.00;;;;;;5055214;28;20032;-36
2021/10/17 03:08:55;;;;;;;36.85;21.52;;;8.80;80.00;;;;;;5055505;28;20401;-39
2021/10/17 03:11:21;;;;;;;36.70;22.00;;;8.80;80.00;;;;;;5054744;28;20025;-35
2021/10/17 03:13:47;;;;;;;41.45;21.92;;;8.80;80.10;;;;;;5055561;28;20434;-36
2021/10/17 03:16:13;;;;;;;34.28;20.20;;;8.80;80.20;;;;;;5054806;28;20052;-35
2021/10/17 03:18:40;;;;;;;37.90;23.00;;;8.80;80.30;;;;;;5055592;28;20025;-39
2021/10/17 03:21:05;;;;;;;30.35;19.13;;;8.80;80.30;;;;;;5054658;28;20047;-39
2021/10/17 03:23:31;;;;;;;37.22;21.20;;;8.80;80.40;;;;;;5055502;28;20036;-36
2021/10/17 03:25:57;;;;;;;37.05;21.80;;;8.80;80.40;;;;;;5055245;28;20025;-38
2021/10/17 03:28:23;;;;;;;34.47;21.63;;;8.80;80.40;;;;;;5055118;28;20037;-39
2021/10/17 03:30:51;;;;;;;37.15;21.65;;;8.70;80.40;;;;;;5054959;28;20317;-36
2021/10/17 03:33:17;;;;;;;36.00;20.85;;;8.70;80.40;;;;;;5055062;28;20349;-36
2021/10/17 03:35:43;;;;;;;37.72;21.77;;;8.70;80.30;;;;;;5054906;28;20021;-39
2021/10/17 03:38:09;;;;;;;37.85;20.95;;;8.70;80.40;;;;;;5054972;28;20424;-35
2021/10/17 03:40:35;;;;;;;38.17;22.40;;;8.70;80.40;;;;;;5054718;28;20044;-36
2021/10/17 03:43:01;;;;;;;33.83;19.88;;;8.70;80.50;;;;;;5054793;28;20041;-38
2021/10/17 03:45:29;;;;;;;39.97;21.75;;;8.70;80.50;;;;;;5054551;28;20116;-39
2021/10/17 03:47:54;;;;;;;39.17;21.92;;;8.70;80.50;;;;;;5054829;28;20116;-38
2021/10/17 03:50:20;;;;;;;34.28;19.77;;;8.70;80.50;;;;;;5054762;28;20056;-36
2021/10/17 03:52:46;;;;;;;36.88;21.10;;;8.70;80.50;;;;;;5055247;28;20124;-36
2021/10/17 03:55:11;;;;;;;34.75;20.75;;;8.70;80.60;;;;;;5058302;28;20394;-36
2021/10/17 03:57:37;;;;;;;33.78;20.50;;;8.70;80.60;;;;;;5058165;28;20033;-35
2021/10/17 04:00:03;;;;;;;39.40;22.67;;;8.70;80.60;;;;;;5057832;28;20074;-38
2021/10/17 04:02:29;;;;;;;42.97;22.48;;;8.60;80.60;;;;;;5058127;28;20040;-38
2021/10/17 04:04:55;;;;;;;36.30;21.00;;;8.60;80.70;;;;;;5058038;28;20082;-37
2021/10/17 04:07:20;;;;;;;40.83;21.75;;;8.60;80.70;;;;;;5058130;28;20091;-35
2021/10/17 04:09:46;;;;;;;38.45;23.00;;;8.60;80.70;;;;;;5058073;28;20036;-38
2021/10/17 04:12:12;;;;;;;41.28;22.40;;;8.60;80.70;;;;;;5058028;28;20039;-35
2021/10/17 04:14:37;;;;;;;41.70;22.60;;;8.60;80.70;;;;;;5057851;28;20048;-37
2021/10/17 04:17:03;;;;;;;38.22;22.92;;;8.60;80.80;;;;;;5057846;28;20083;-35
2021/10/17 04:19:29;;;;;;;39.28;23.73;;;8.50;80.70;;;;;;5057730;28;20435;-35
2021/10/17 04:21:54;;;;;;;37.28;21.58;;;8.50;80.80;;;;;;5057657;28;20029;-36
2021/10/17 04:24:20;;;;;;;42.58;22.80;;;8.50;80.90;;;;;;5057875;28;20151;-38
2021/10/17 04:26:45;;;;;;;40.13;22.95;;;8.50;80.90;;;;;;5057721;28;20112;-36
2021/10/17 04:29:11;;;;;;;39.22;23.65;;;8.50;80.90;;;;;;5057666;28;20028;-38
2021/10/17 04:31:37;;;;;;;44.00;22.83;;;8.50;81.00;;;;;;5057621;28;20356;-39
2021/10/17 04:34:02;;;;;;;39.30;22.60;;;8.50;81.00;;;;;;5057320;28;20107;-39
2021/10/17 04:36:29;;;;;;;41.13;22.73;;;8.50;81.00;;;;;;5057355;28;20060;-39
2021/10/17 04:38:55;;;;;;;46.53;23.58;;;8.50;81.00;;;;;;5057723;28;20079;-39
2021/10/17 04:41:21;;;;;;;35.90;21.50;;;8.40;81.00;;;;;;5056904;28;20076;-35
2021/10/17 04:43:46;;;;;;;41.78;21.40;;;8.40;81.00;;;;;;5057918;28;20060;-36
2021/10/17 04:46:12;;;;;;;37.83;21.70;;;8.40;81.10;;;;;;5056856;28;20033;-38
2021/10/17 04:48:38;;;;;;;37.00;21.58;;;8.40;81.20;;;;;;5057294;28;20037;-36
2021/10/17 04:51:04;;;;;;;42.50;22.67;;;8.40;81.30;;;;;;5057185;28;20029;-38
2021/10/17 04:53:29;;;;;;;37.63;21.75;;;8.40;81.20;;;;;;5057459;28;20040;-36
2021/10/17 04:55:55;;;;;;;41.53;22.20;;;8.40;81.30;;;;;;5056956;28;20029;-36
2021/10/17 04:58:21;;;;;;;42.47;21.80;;;8.40;81.40;;;;;;5057219;28;20437;-39
2021/10/17 05:00:47;;;;;;;33.67;20.23;;;8.40;81.60;;;;;;5056858;28;20025;-40
2021/10/17 05:03:13;;;;;;;37.92;21.38;;;8.50;81.70;;;;;;5056944;28;20432;-39
2021/10/17 05:05:41;;;;;;;45.17;24.10;;;8.50;81.80;;;;;;5055479;28;20033;-39
2021/10/17 05:08:08;;;;;;;41.22;23.95;;;8.50;81.80;;;;;;5056391;28;20441;-36
2021/10/17 05:10:33;;;;;;;39.78;22.80;;;8.50;82.00;;;;;;5056703;28;20037;-36
2021/10/17 05:12:59;;;;;;;36.95;21.60;;;8.60;82.10;;;;;;5056786;28;20068;-35
2021/10/17 05:15:25;;;;;;;41.38;23.10;;;8.60;82.20;;;;;;5056444;28;20029;-39
2021/10/17 05:17:50;;;;;;;38.83;22.58;;;8.60;82.30;;;;;;5056747;28;20028;-35
2021/10/17 05:20:16;;;;;;;44.55;23.90;;;8.70;82.30;;;;;;5056313;28;20075;-35
2021/10/17 05:22:41;;;;;;;37.83;22.00;;;8.70;82.40;;;;;;5055323;28;20037;-38
2021/10/17 05:25:08;;;;;;;57.33;24.33;;;8.70;82.30;;;;;;5056669;28;20349;-38
2021/10/17 05:27:33;;;;;;;43.72;24.55;;;8.80;82.30;;;;;;5056517;28;20124;-39
2021/10/17 05:29:59;;;;;;;52.72;24.58;;;8.80;82.20;;;;;;5056272;28;20112;-38
2021/10/17 05:32:25;;;;;;;49.35;23.98;;;8.80;82.00;;;;;;5047923;28;20086;-35
2021/10/17 05:34:50;;;;;;;49.08;24.40;;;8.80;81.80;;;;;;5055439;28;20154;-35
2021/10/17 05:37:16;;;;;;;53.47;24.85;;;8.80;81.80;;;;;;5056166;28;20179;-35
2021/10/17 05:39:42;;;;;;;38.75;21.88;;;8.80;81.70;;;;;;5051691;28;20059;-38
2021/10/17 05:42:08;;;;;;;46.28;24.15;;;8.80;81.70;;;;;;5042860;28;20044;-35
2021/10/17 05:44:33;;;;;;;46.35;23.35;;;8.80;81.60;;;;;;5036077;28;20033;-35
2021/10/17 05:46:59;;;;;;;50.78;24.98;;;8.80;81.50;;;;;;5036050;28;20061;-35
2021/10/17 05:49:25;;;;;;;48.45;25.42;;;8.80;81.50;;;;;;5035832;28;20069;-39
2021/10/17 05:51:50;;;;;;;48.65;23.98;;;8.80;81.50;;;;;;5036050;28;20156;-35
2021/10/17 05:54:16;;;;;;;45.42;24.65;;;8.80;81.50;;;;;;5034614;28;20457;-35
2021/10/17 05:56:41;;;;;;;42.80;23.50;;;8.80;81.60;;;;;;5035558;28;20377;-35
2021/10/17 05:59:08;;;;;;;38.85;22.52;;;8.80;81.60;;;;;;5035780;28;20033;-36
2021/10/17 06:01:35;;;;;;;45.42;24.50;;;8.80;81.60;;;;;;5035678;28;20041;-35
2021/10/17 06:04:01;;;;;;;51.67;26.70;;;8.90;81.70;;;;;;5036111;28;20042;-36
2021/10/17 06:06:27;;;;;;;47.63;22.48;;;8.90;81.70;;;;;;5035244;28;20040;-36
2021/10/17 06:08:55;;;;;;;44.15;22.70;;;8.90;81.80;;;;;;5035941;28;20057;-35
2021/10/17 06:11:20;;;;;;;43.33;23.80;;;9.00;81.90;;;;;;5035563;28;20469;-39
2021/10/17 06:13:46;;;;;;;70.97;26.80;;;9.00;82.00;;;;;;5036226;28;20121;-37
2021/10/17 06:16:11;;;;;;;46.20;24.23;;;9.00;82.10;;;;;;5035009;28;20075;-35
2021/10/17 06:18:37;;;;;;;39.97;23.65;;;9.10;82.40;;;;;;5035861;28;20021;-42
2021/10/17 06:21:05;;;;;;;41.35;22.35;;;9.10;82.40;;;;;;5035409;28;20609;-39
2021/10/17 06:23:31;;;;;;;40.33;23.10;;;9.20;82.30;;;;;;5035918;28;20037;-35
2021/10/17 06:25:57;;;;;;;35.90;21.77;;;9.30;82.30;;;;;;5035618;28;20045;-39
2021/10/17 06:28:22;;;;;;;39.33;22.52;;;9.30;82.40;;;;;;5035657;28;20156;-35
2021/10/17 06:30:48;;;;;;;40.53;21.38;;;9.40;82.40;;;;;;5035361;28;20084;-39
2021/10/17 06:33:14;;;;;;;41.45;23.27;;;9.50;82.50;;;;;;5035241;28;20448;-39
2021/10/17 06:35:39;;;;;;;38.33;22.63;;;9.50;82.30;;;;;;5035172;28;20032;-35
2021/10/17 06:38:05;;;;;;;37.50;21.75;;;9.60;82.20;;;;;;5035338;28;20064;-36
2021/10/17 06:40:31;;;;;;;39.15;22.52;;;9.70;82.20;;;;;;5035055;28;20434;-38
2021/10/17 06:42:57;;;;;;;36.42;21.15;;;9.70;82.00;;;;;;5035325;28;20121;-39
2021/10/17 06:45:23;;;;;;;32.13;19.83;;;9.80;82.10;;;;;;5035179;28;20075;-35
2021/10/17 06:47:48;;;;;;;34.67;20.42;;;9.90;81.80;;;;;;5035351;28;20030;-35
2021/10/17 06:50:17;;;;;;;38.72;20.67;;;10.00;81.50;;;;;;5035511;28;20433;-40
2021/10/17 06:52:43;;;;;;;36.35;20.25;;;10.00;81.20;;;;;;5034228;28;20065;-39
2021/10/17 06:55:09;;;;;;;29.98;18.80;;;10.10;81.10;;;;;;5034493;28;20056;-39
2021/10/17 06:57:35;;;;;;;33.75;21.65;;;10.20;81.10;;;;;;5034419;28;20041;-39
2021/10/17 07:00:00;;;;;;;34.50;19.88;;;10.20;81.00;;;;;;5034205;28;20032;-34
2021/10/17 07:02:26;;;;;;;30.05;18.63;;;10.30;80.70;;;;;;5034160;28;20040;-39
2021/10/17 07:04:51;;;;;;;37.00;20.70;;;10.40;80.60;;;;;;5034047;28;20060;-39
2021/10/17 07:07:17;;;;;;;40.60;20.33;;;10.50;80.70;;;;;;5034016;28;20033;-35
2021/10/17 07:09:43;;;;;;;33.30;18.33;;;10.50;80.60;;;;;;5033712;28;20410;-39
2021/10/17 07:12:09;;;;;;;29.00;17.95;;;10.60;80.20;;;;;;5045365;28;20061;-39
2021/10/17 07:14:34;;;;;;;33.70;17.83;;;10.60;80.00;;;;;;5039592;28;20040;-35
2021/10/17 07:17:00;;;;;;;29.55;17.50;;;10.70;80.00;;;;;;5034091;28;20357;-37
2021/10/17 07:19:26;;;;;;;29.88;18.23;;;10.70;80.00;;;;;;5033507;28;20026;-35
2021/10/17 07:21:51;;;;;;;32.17;17.45;;;10.80;79.70;;;;;;5046013;28;20124;-34
2021/10/17 07:24:17;;;;;;;29.45;17.30;;;10.80;79.70;;;;;;5053726;28;20325;-35
2021/10/17 07:26:43;;;;;;;35.10;19.08;;;10.90;79.60;;;;;;5053495;28;20031;-39
2021/10/17 07:29:08;;;;;;;39.58;23.05;;;10.90;79.40;;;;;;5056384;28;20096;-33
2021/10/17 07:31:34;;;;;;;30.63;18.15;;;10.90;79.30;;;;;;5057309;28;20349;-38
2021/10/17 07:34:00;;;;;;;30.25;17.67;;;11.00;79.20;;;;;;5057236;28;20025;-38
2021/10/17 07:36:25;;;;;;;37.33;22.88;;;11.00;79.00;;;;;;5056387;28;20047;-36
2021/10/17 07:38:51;;;;;;;34.10;18.85;;;11.00;78.90;;;;;;5057602;28;20024;-39
2021/10/17 07:41:17;;;;;;;38.70;22.20;;;11.10;78.80;;;;;;5056502;28;20025;-39
2021/10/17 07:43:42;;;;;;;41.33;25.38;;;11.10;78.90;;;;;;5057614;28;20033;-39
2021/10/17 07:46:08;;;;;;;33.78;19.63;;;11.20;79.10;;;;;;5056620;28;20025;-34
2021/10/17 07:48:36;;;;;;;38.80;18.00;;;11.20;79.00;;;;;;5057375;28;20085;-34
2021/10/17 07:51:04;;;;;;;30.10;18.13;;;11.30;78.80;;;;;;5046766;28;20382;-34
2021/10/17 07:53:29;;;;;;;29.55;18.10;;;11.40;78.50;;;;;;5037154;28;20382;-39
2021/10/17 07:55:55;;;;;;;33.85;15.32;;;11.40;78.00;;;;;;4995967;28;1182366;-40
2021/10/17 07:58:21;;;;;;;28.35;16.40;;;11.50;77.70;;;;;;5038172;28;20416;-39
2021/10/17 08:00:46;;;;;;;27.85;15.43;;;11.50;77.60;;;;;;5037779;28;20040;-39
2021/10/17 08:03:12;;;;;;;24.45;14.57;;;11.60;77.60;;;;;;5037981;28;20425;-39
2021/10/17 08:05:37;;;;;;;36.53;16.75;;;11.60;77.50;;;;;;5037967;28;20029;-39
2021/10/17 08:08:04;;;;;;;25.73;14.68;;;11.70;77.10;;;;;;5037850;28;20310;-38
2021/10/17 08:10:30;;;;;;;26.73;15.90;;;11.80;76.70;;;;;;5037444;28;20068;-33
2021/10/17 08:12:55;;;;;;;21.73;14.35;;;11.80;76.40;;;;;;5039482;28;20329;-38
2021/10/17 08:15:24;;;;;;;21.80;14.18;;;11.90;76.30;;;;;;5037431;28;20034;-34
2021/10/17 08:17:50;;;;;;;26.35;15.93;;;11.90;76.10;;;;;;5037166;28;20022;-34
2021/10/17 08:20:16;;;;;;;26.10;16.58;;;12.00;76.50;;;;;;5037073;28;20048;-37
2021/10/17 08:22:41;;;;;;;26.80;15.02;;;12.00;75.50;;;;;;5037628;28;20025;-35
2021/10/17 08:25:08;;;;;;;30.58;18.75;;;12.10;75.30;;;;;;5037222;28;20086;-35
2021/10/17 08:27:34;;;;;;;26.92;16.10;;;12.20;75.10;;;;;;5037547;28;20108;-35
2021/10/17 08:30:00;;;;;;;30.23;19.02;;;12.20;74.80;;;;;;5037501;28;20044;-36
2021/10/17 08:32:26;;;;;;;26.85;16.67;;;12.30;74.70;;;;;;5037449;28;20029;-35
2021/10/17 08:34:52;;;;;;;23.15;14.35;;;12.30;74.40;;;;;;5037042;28;20074;-35
2021/10/17 08:37:17;;;;;;;28.00;15.77;;;12.40;74.20;;;;;;5037220;28;20064;-35
2021/10/17 08:39:43;;;;;;;22.48;13.05;;;12.40;74.00;;;;;;5036696;28;20056;-35
2021/10/17 08:42:10;;;;;;;24.38;13.73;;;12.40;73.80;;;;;;5037120;28;20033;-35
2021/10/17 08:44:35;;;;;;;20.83;13.75;;;12.40;73.80;;;;;;5037055;28;20030;-35
2021/10/17 08:47:01;;;;;;;20.23;12.45;;;12.50;73.70;;;;;;5036922;28;20029;-35
2021/10/17 08:49:28;;;;;;;23.00;14.05;;;12.50;73.70;;;;;;5036903;28;20117;-35
2021/10/17 08:51:54;;;;;;;20.75;14.10;;;12.60;73.60;;;;;;5036932;28;20109;-35
2021/10/17 08:54:19;;;;;;;18.92;12.32;;;12.60;73.50;;;;;;5036722;28;20429;-35
2021/10/17 08:56:45;;;;;;;26.30;14.20;;;12.70;73.40;;;;;;5036699;28;20049;-36
2021/10/17 08:59:11;;;;;;;21.15;11.82;;;12.70;73.20;;;;;;5036648;28;20029;-37
2021/10/17 09:01:38;;;;;;;23.52;13.52;;;12.80;73.20;;;;;;5036525;28;20036;-35
2021/10/17 09:04:06;;;;;;;17.90;12.25;;;12.80;73.00;;;;;;5036978;28;20092;-36
2021/10/17 09:06:37;;;;;;;20.27;11.07;;;12.90;72.50;;;;;;5036328;28;20044;-35
2021/10/17 09:09:18;;;;;;;16.10;11.07;;;12.90;72.00;;;;;;5046818;28;20364;-36
2021/10/17 09:11:57;;;;;;;21.02;11.48;;;12.90;71.60;;;;;;5049372;28;20376;-35
2021/10/17 09:14:25;;;;;;;32.10;15.93;;;12.90;71.70;;;;;;5055901;28;20040;-34
2021/10/17 09:16:54;;;;;;;18.05;11.63;;;13.00;72.50;;;;;;5056603;28;20029;-35
2021/10/17 09:19:31;;;;;;;22.80;11.70;;;13.00;71.60;;;;;;5056700;28;20029;-35
2021/10/17 09:22:01;;;;;;;17.58;10.50;;;13.00;71.50;;;;;;5038262;28;20038;-39
2021/10/17 09:24:35;;;;;;;16.42;10.02;;;13.00;71.30;;;;;;5036335;28;20038;-36
2021/10/17 09:27:05;;;;;;;14.90;8.88;;;13.00;71.40;;;;;;5036281;28;20043;-36
2021/10/17 09:29:32;;;;;;;15.37;8.33;;;13.10;71.20;;;;;;5036213;28;20029;-35
2021/10/17 09:31:58;;;;;;;15.55;8.90;;;13.00;70.80;;;;;;5036076;28;20258;-36
2021/10/17 09:34:28;;;;;;;14.10;8.63;;;13.10;70.70;;;;;;5035942;28;20131;-36
2021/10/17 09:37:11;;;;;;;13.18;7.85;;;13.10;70.30;;;;;;5036205;28;20416;-39
2021/10/17 09:39:45;;;;;;;15.23;8.02;;;13.10;70.00;;;;;;5036498;28;20035;-39
2021/10/17 09:42:21;;;;;;;16.13;8.10;;;13.10;69.70;;;;;;5036077;28;20056;-35
2021/10/17 09:44:47;;;;;;;16.65;8.68;;;13.10;69.30;;;;;;5036072;28;20029;-36
2021/10/17 09:47:14;;;;;;;11.00;7.47;;;13.10;69.50;;;;;;5036222;28;20314;-35
2021/10/17 09:49:40;;;;;;;13.75;7.43;;;13.20;69.20;;;;;;5035843;28;20288;-34
2021/10/17 09:52:18;;;;;;;16.27;7.05;;;13.30;69.30;;;;;;5035410;28;20025;-36
2021/10/17 09:54:46;;;;;;;35.50;13.02;;;13.30;68.50;;;;;;5036013;28;20034;-36
2021/10/17 09:57:12;;;;;;;16.45;7.38;;;13.30;68.60;;;;;;5035639;28;20049;-34
2021/10/17 09:59:37;;;;;;;14.35;6.70;;;13.40;68.10;;;;;;5035908;28;20479;-35
2021/10/17 10:02:07;;;;;;;11.93;5.40;;;13.40;67.70;;;;;;5035540;28;20040;-35
2021/10/17 10:04:35;;;;;;;10.70;5.93;;;13.50;66.90;;;;;;5035741;28;20034;-35
2021/10/17 10:07:02;;;;;;;9.98;4.25;;;13.50;65.80;;;;;;5035524;28;20345;-35
2021/10/17 10:09:30;;;;;;;7.18;4.43;;;13.50;65.20;;;;;;5035502;28;20041;-35
2021/10/17 10:11:56;;;;;;;30.42;7.10;;;13.60;64.40;;;;;;5035453;28;20025;-35
2021/10/17 10:14:22;;;;;;;20.73;4.88;;;13.60;64.20;;;;;;5035436;28;20136;-36
2021/10/17 10:16:53;;;;;;;11.32;4.32;;;13.60;63.80;;;;;;5035444;28;20413;-37
2021/10/17 10:19:19;;;;;;;9.07;4.80;;;13.70;63.20;;;;;;5035735;28;20030;-34
2021/10/17 10:21:44;;;;;;;7.75;4.60;;;13.70;62.70;;;;;;5034959;28;20040;-36
2021/10/17 10:24:12;;;;;;;10.38;6.00;;;13.70;62.10;;;;;;5035168;28;20037;-35
2021/10/17 10:26:40;;;;;;;7.93;4.88;;;13.70;62.20;;;;;;5034989;28;20441;-39
2021/10/17 10:29:06;;;;;;;7.90;4.82;;;13.70;62.10;;;;;;5035530;28;20329;-38
2021/10/17 10:31:52;;;;;;;8.93;5.78;;;13.80;61.80;;;;;;5034992;28;20029;-36
2021/10/17 10:34:23;;;;;;;11.25;4.95;;;13.80;61.60;;;;;;5034924;28;20038;-36
2021/10/17 10:36:50;;;;;;;7.15;4.35;;;13.90;61.60;;;;;;5039688;28;20397;-39
2021/10/17 10:39:17;;;;;;;12.20;4.85;;;14.00;61.60;;;;;;5044651;28;20035;-39
2021/10/17 10:41:52;;;;;;;9.98;5.00;;;14.00;61.60;;;;;;5049358;28;20077;-39
2021/10/17 10:44:22;;;;;;;10.20;4.93;;;14.20;60.90;;;;;;5044312;28;20025;-39
2021/10/17 10:46:54;;;;;;;7.32;4.53;;;14.40;60.70;;;;;;5039620;28;20038;-37
2021/10/17 10:49:41;;;;;;;9.52;4.20;;;14.50;59.80;;;;;;5040400;28;20081;-35
2021/10/17 10:52:29;;;;;;;9.07;5.05;;;14.60;58.50;;;;;;5044783;28;20057;-34
2021/10/17 10:55:00;;;;;;;8.32;4.57;;;14.70;58.40;;;;;;5035304;28;20334;-35
2021/10/17 10:57:30;;;;;;;9.68;5.28;;;14.70;58.70;;;;;;5042298;28;20048;-35
2021/10/17 11:00:05;;;;;;;8.90;4.78;;;14.70;58.60;;;;;;5039523;28;20029;-36
2021/10/17 11:02:32;;;;;;;7.47;4.60;;;14.70;58.20;;;;;;5042592;28;20061;-34
2021/10/17 11:05:03;;;;;;;10.68;5.03;;;14.70;58.40;;;;;;5046145;28;20044;-35
2021/10/17 11:07:34;;;;;;;8.68;5.45;;;14.70;58.10;;;;;;5045098;28;20060;-38
2021/10/17 11:10:21;;;;;;;9.38;5.13;;;14.60;57.80;;;;;;5045519;28;20034;-37
2021/10/17 11:12:49;;;;;;;12.77;4.80;;;14.70;58.00;;;;;;5038824;28;20136;-35
2021/10/17 11:15:17;;;;;;;6.70;4.30;;;14.70;57.90;;;;;;5041648;28;20029;-35
2021/10/17 11:17:50;;;;;;;10.95;4.60;;;14.60;57.80;;;;;;5039032;28;20017;-35
2021/10/17 11:20:19;;;;;;;7.38;4.20;;;14.70;57.70;;;;;;5052014;28;20025;-34
2021/10/17 11:22:46;;;;;;;32.92;5.20;;;14.70;57.80;;;;;;5040674;28;20033;-35
2021/10/17 11:25:17;;;;;;;33.97;7.32;;;14.70;57.70;;;;;;5056788;28;20140;-36
2021/10/17 11:27:44;;;;;;;13.73;8.07;;;14.70;57.80;;;;;;5054945;28;20068;-36
2021/10/17 11:30:20;;;;;;;68.93;8.45;;;14.70;58.10;;;;;;5044956;28;20038;-39
2021/10/17 11:32:46;;;;;;;10.77;4.93;;;14.80;58.00;;;;;;5039760;28;20108;-39
2021/10/17 11:35:11;;;;;;;10.15;4.45;;;14.90;57.70;;;;;;5050334;28;20037;-39
2021/10/17 11:37:37;;;;;;;5.72;3.85;;;15.00;57.40;;;;;;5048082;28;20026;-38
2021/10/17 11:40:08;;;;;;;7.82;4.05;;;15.20;56.80;;;;;;5041574;28;20021;-39
2021/10/17 11:42:50;;;;;;;8.70;3.92;;;15.40;56.60;;;;;;5043563;28;20113;-38
2021/10/17 11:45:26;;;;;;;7.25;3.38;;;15.60;54.80;;;;;;5047264;28;20038;-38
2021/10/17 11:47:56;;;;;;;6.63;3.70;;;15.80;54.80;;;;;;5054296;28;20032;-38
2021/10/17 11:50:28;;;;;;;7.72;3.53;;;16.00;54.20;;;;;;5052813;28;20041;-35
2021/10/17 11:52:59;;;;;;;4.18;3.38;;;16.20;53.60;;;;;;5045676;28;20037;-35
2021/10/17 11:55:31;;;;;;;7.53;3.72;;;16.20;52.80;;;;;;5043178;28;20102;-36
2021/10/17 11:57:56;;;;;;;6.93;3.85;;;16.20;52.90;;;;;;5057230;28;20076;-36
2021/10/17 12:00:27;;;;;;;8.68;4.07;;;16.20;53.00;;;;;;5056935;28;20112;-35
2021/10/17 12:02:54;;;;;;;7.78;3.97;;;16.20;52.90;;;;;;5054912;28;20029;-38
2021/10/17 12:05:22;;;;;;;8.38;3.58;;;16.20;52.60;;;;;;5043295;28;20056;-35
2021/10/17 12:07:48;;;;;;;8.82;4.00;;;16.10;52.40;;;;;;5042766;28;20029;-38
2021/10/17 12:10:14;;;;;;;8.18;3.65;;;16.00;52.50;;;;;;5035756;28;20040;-34
2021/10/17 12:12:41;;;;;;;8.48;3.15;;;16.00;52.30;;;;;;5034417;28;20033;-35
2021/10/17 12:15:10;;;;;;;7.75;3.10;;;15.90;52.00;;;;;;5035216;28;20307;-37
2021/10/17 12:17:36;;;;;;;10.40;3.78;;;15.80;51.50;;;;;;5036893;28;20061;-38
2021/10/17 12:20:10;;;;;;;7.15;3.10;;;15.70;51.50;;;;;;5037082;28;20060;-37
2021/10/17 12:22:48;;;;;;;8.07;2.85;;;15.70;51.70;;;;;;5036983;28;20041;-35
2021/10/17 12:25:15;;;;;;;20.85;5.00;;;15.70;51.20;;;;;;5036095;28;20068;-33
2021/10/17 12:27:46;;;;;;;8.18;3.42;;;15.70;50.50;;;;;;5036485;28;20069;-38
2021/10/17 12:30:12;;;;;;;7.57;3.50;;;15.60;50.60;;;;;;5036507;28;20026;-38
2021/10/17 12:32:47;;;;;;;14.43;4.18;;;15.50;50.50;;;;;;5037708;28;20305;-35
2021/10/17 12:35:22;;;;;;;18.05;4.70;;;15.50;50.80;;;;;;5037454;28;20082;-34